createdAt,value
2022-10-09T00:14:15.335Z,100984.52
2022-10-09T00:36:02.949Z,101002.83
2022-10-09T00:57:49.443Z,101024.41
2022-10-09T01:19:51.412Z,101032.87
2022-10-09T01:41:38.051Z,101050.89
2022-10-09T02:03:27.200Z,101070.89
2022-10-09T02:25:13.877Z,101084.75
2022-10-09T02:46:59.759Z,101105.91
2022-10-09T03:08:47.559Z,101133.40
2022-10-09T03:30:33.268Z,101144.33
2022-10-09T03:52:19.011Z,101168.56
2022-10-09T04:14:05.149Z,101188.63
2022-10-09T04:35:53.624Z,101205.66
2022-10-09T04:57:39.730Z,101212.30
2022-10-09T05:26:03.626Z,101238.77
2022-10-09T05:47:49.413Z,101257.08
2022-10-09T06:26:10.515Z,101295.04
2022-10-09T06:47:56.394Z,101323.67
2022-10-09T07:09:43.215Z,101336.57
2022-10-09T07:31:29.396Z,101363.55
2022-10-09T07:53:15.301Z,101377.40
2022-10-09T08:15:01.024Z,101389.17
2022-10-09T08:36:47.191Z,101394.70
2022-10-09T08:58:35.956Z,101394.46
2022-10-09T09:20:27.053Z,101394.29
2022-10-09T09:42:18.809Z,101382.17
2022-10-09T10:26:13.690Z,101358.75
2022-10-09T10:48:03.515Z,101355.59
2022-10-09T11:09:59.691Z,101355.15
2022-10-09T11:31:51.716Z,101353.73
2022-10-09T11:53:40.088Z,101342.08
2022-10-09T12:15:29.673Z,101326.69
2022-10-09T12:37:18.526Z,101299.50
2022-10-09T12:59:07.045Z,101284.83
2022-10-09T13:21:03.861Z,101279.64
2022-10-09T13:42:55.267Z,101258.24
2022-10-09T14:04:41.366Z,101242.99
2022-10-09T14:26:28.060Z,101233.62
2022-10-09T14:48:13.879Z,101223.88
2022-10-09T15:09:59.632Z,101212.36
2022-10-09T15:31:45.356Z,101204.92
2022-10-09T15:53:31.164Z,101190.05
2022-10-09T16:15:16.899Z,101186.64
2022-10-09T16:37:03.277Z,101198.83
2022-10-09T16:58:49.558Z,101213.27
2022-10-09T17:20:36.140Z,101216.11
2022-10-09T17:48:18.776Z,101217.36
2022-10-09T18:10:05.023Z,101218.40
2022-10-09T18:31:55.840Z,101230.30
2022-10-09T18:53:43.589Z,101229.34
2022-10-09T19:15:29.494Z,101230.03
2022-10-09T19:37:15.512Z,101226.91
2022-10-09T19:59:03.250Z,101226.54
2022-10-09T20:20:51.112Z,101222.30
2022-10-09T20:42:36.829Z,101220.02
2022-10-09T21:04:22.683Z,101208.98
2022-10-09T21:26:12.043Z,101201.15
2022-10-09T21:47:58.004Z,101187.26
2022-10-09T22:26:12.709Z,101166.81
2022-10-09T22:47:59.455Z,101159.27
2022-10-09T23:10:00.619Z,101148.69
2022-10-09T23:31:46.994Z,101138.04
2022-10-09T23:53:32.799Z,101130.23
